sensor_id;sensor_type;location;lat;lon;timestamp;P1;durP1;ratioP1;P2;durP2;ratioP2
74677;SDS011;67324;56.326;43.982;2023-07-13T00:01:30;1.60;;;1.40;;
74677;SDS011;67324;56.326;43.982;2023-07-13T00:03:57;1.80;;;1.50;;
74677;SDS011;67324;56.326;43.982;2023-07-13T00:06:23;1.50;;;1.30;;
74677;SDS011;67324;56.326;43.982;2023-07-13T00:08:49;1.40;;;1.20;;
74677;SDS011;67324;56.326;43.982;2023-07-13T00:11:16;1.95;;;1.20;;
74677;SDS011;67324;56.326;43.982;2023-07-13T00:13:43;1.90;;;1.27;;
74677;SDS011;67324;56.326;43.982;2023-07-13T00:16:10;2.28;;;1.35;;
74677;SDS011;67324;56.326;43.982;2023-07-13T00:18:36;1.52;;;1.23;;
74677;SDS011;67324;56.326;43.982;2023-07-13T00:21:03;1.55;;;1.30;;
74677;SDS011;67324;56.326;43.982;2023-07-13T00:23:33;1.83;;;1.50;;
74677;SDS011;67324;56.326;43.982;2023-07-13T00:26:04;1.27;;;1.00;;
74677;SDS011;67324;56.326;43.982;2023-07-13T00:28:31;1.75;;;1.25;;
74677;SDS011;67324;56.326;43.982;2023-07-13T00:30:58;1.98;;;1.20;;
74677;SDS011;67324;56.326;43.982;2023-07-13T00:33:24;1.88;;;1.50;;
74677;SDS011;67324;56.326;43.982;2023-07-13T00:35:53;1.77;;;1.30;;
74677;SDS011;67324;56.326;43.982;2023-07-13T00:38:19;1.85;;;1.42;;
74677;SDS011;67324;56.326;43.982;2023-07-13T00:40:46;2.20;;;1.40;;
74677;SDS011;67324;56.326;43.982;2023-07-13T00:43:15;1.60;;;1.35;;
74677;SDS011;67324;56.326;43.982;2023-07-13T00:48:12;1.60;;;1.33;;
74677;SDS011;67324;56.326;43.982;2023-07-13T00:50:43;1.45;;;1.30;;
74677;SDS011;67324;56.326;43.982;2023-07-13T00:53:12;1.50;;;1.40;;
74677;SDS011;67324;56.326;43.982;2023-07-13T00:55:38;1.75;;;1.30;;
74677;SDS011;67324;56.326;43.982;2023-07-13T00:58:05;1.63;;;1.38;;
74677;SDS011;67324;56.326;43.982;2023-07-13T01:00:33;2.00;;;1.38;;
74677;SDS011;67324;56.326;43.982;2023-07-13T01:03:01;2.47;;;1.38;;
74677;SDS011;67324;56.326;43.982;2023-07-13T01:05:30;1.77;;;1.30;;
74677;SDS011;67324;56.326;43.982;2023-07-13T01:07:59;1.88;;;1.42;;
74677;SDS011;67324;56.326;43.982;2023-07-13T01:10:26;2.17;;;1.50;;
74677;SDS011;67324;56.326;43.982;2023-07-13T01:12:52;1.88;;;1.30;;
74677;SDS011;67324;56.326;43.982;2023-07-13T01:15:42;2.05;;;1.60;;
74677;SDS011;67324;56.326;43.982;2023-07-13T01:18:20;1.67;;;1.30;;
74677;SDS011;67324;56.326;43.982;2023-07-13T01:20:55;1.75;;;1.30;;
74677;SDS011;67324;56.326;43.982;2023-07-13T01:23:26;1.80;;;1.33;;
74677;SDS011;67324;56.326;43.982;2023-07-13T01:25:54;1.60;;;1.10;;
74677;SDS011;67324;56.326;43.982;2023-07-13T01:28:22;1.52;;;1.20;;
74677;SDS011;67324;56.326;43.982;2023-07-13T01:30:53;1.58;;;1.27;;
74677;SDS011;67324;56.326;43.982;2023-07-13T01:33:19;1.20;;;1.10;;
74677;SDS011;67324;56.326;43.982;2023-07-13T01:35:45;1.65;;;1.20;;
74677;SDS011;67324;56.326;43.982;2023-07-13T01:38:13;1.30;;;1.10;;
74677;SDS011;67324;56.326;43.982;2023-07-13T01:40:41;1.50;;;1.30;;
74677;SDS011;67324;56.326;43.982;2023-07-13T01:43:07;1.90;;;1.50;;
74677;SDS011;67324;56.326;43.982;2023-07-13T01:45:34;1.50;;;1.23;;
74677;SDS011;67324;56.326;43.982;2023-07-13T01:47:59;1.92;;;1.40;;
74677;SDS011;67324;56.326;43.982;2023-07-13T01:50:25;2.28;;;1.30;;
74677;SDS011;67324;56.326;43.982;2023-07-13T01:52:52;1.60;;;1.20;;
74677;SDS011;67324;56.326;43.982;2023-07-13T01:55:19;1.77;;;1.40;;
74677;SDS011;67324;56.326;43.982;2023-07-13T01:57:46;1.58;;;1.40;;
74677;SDS011;67324;56.326;43.982;2023-07-13T02:00:12;1.88;;;1.50;;
74677;SDS011;67324;56.326;43.982;2023-07-13T02:02:42;1.48;;;1.30;;
74677;SDS011;67324;56.326;43.982;2023-07-13T02:05:10;1.70;;;1.40;;
74677;SDS011;67324;56.326;43.982;2023-07-13T02:07:37;1.65;;;1.20;;
74677;SDS011;67324;56.326;43.982;2023-07-13T02:10:22;1.77;;;1.30;;
74677;SDS011;67324;56.326;43.982;2023-07-13T02:13:06;1.38;;;1.25;;
74677;SDS011;67324;56.326;43.982;2023-07-13T02:15:33;2.00;;;1.30;;
74677;SDS011;67324;56.326;43.982;2023-07-13T02:17:59;1.55;;;1.33;;
74677;SDS011;67324;56.326;43.982;2023-07-13T02:20:44;1.88;;;1.30;;
74677;SDS011;67324;56.326;43.982;2023-07-13T02:23:10;1.48;;;1.23;;
74677;SDS011;67324;56.326;43.982;2023-07-13T02:25:36;1.50;;;1.20;;
74677;SDS011;67324;56.326;43.982;2023-07-13T02:28:03;1.40;;;1.20;;
74677;SDS011;67324;56.326;43.982;2023-07-13T02:30:29;1.27;;;1.17;;
74677;SDS011;67324;56.326;43.982;2023-07-13T02:32:56;1.60;;;1.23;;
74677;SDS011;67324;56.326;43.982;2023-07-13T02:35:22;1.48;;;1.20;;
74677;SDS011;67324;56.326;43.982;2023-07-13T02:37:49;1.55;;;1.40;;
74677;SDS011;67324;56.326;43.982;2023-07-13T02:40:15;1.70;;;1.30;;
74677;SDS011;67324;56.326;43.982;2023-07-13T02:42:41;1.65;;;1.30;;
74677;SDS011;67324;56.326;43.982;2023-07-13T02:45:07;1.63;;;1.23;;
74677;SDS011;67324;56.326;43.982;2023-07-13T02:47:34;1.80;;;1.30;;
74677;SDS011;67324;56.326;43.982;2023-07-13T02:50:01;1.77;;;1.45;;
74677;SDS011;67324;56.326;43.982;2023-07-13T02:52:29;1.90;;;1.30;;
74677;SDS011;67324;56.326;43.982;2023-07-13T02:57:40;1.80;;;1.38;;
74677;SDS011;67324;56.326;43.982;2023-07-13T03:00:06;1.95;;;1.40;;
74677;SDS011;67324;56.326;43.982;2023-07-13T03:02:33;1.58;;;1.30;;
74677;SDS011;67324;56.326;43.982;2023-07-13T03:04:59;2.20;;;1.30;;
74677;SDS011;67324;56.326;43.982;2023-07-13T03:07:26;1.90;;;1.30;;
74677;SDS011;67324;56.326;43.982;2023-07-13T03:09:55;1.50;;;1.23;;
74677;SDS011;67324;56.326;43.982;2023-07-13T03:12:24;1.42;;;1.23;;
74677;SDS011;67324;56.326;43.982;2023-07-13T03:14:51;1.75;;;1.45;;
74677;SDS011;67324;56.326;43.982;2023-07-13T03:17:17;1.33;;;1.20;;
74677;SDS011;67324;56.326;43.982;2023-07-13T03:19:43;1.77;;;1.30;;
74677;SDS011;67324;56.326;43.982;2023-07-13T03:22:10;1.50;;;1.15;;
74677;SDS011;67324;56.326;43.982;2023-07-13T03:24:38;1.63;;;1.30;;
74677;SDS011;67324;56.326;43.982;2023-07-13T03:27:22;1.60;;;1.30;;
74677;SDS011;67324;56.326;43.982;2023-07-13T03:29:49;1.38;;;1.15;;
74677;SDS011;67324;56.326;43.982;2023-07-13T03:32:16;1.50;;;1.17;;
74677;SDS011;67324;56.326;43.982;2023-07-13T03:35:00;1.77;;;1.52;;
74677;SDS011;67324;56.326;43.982;2023-07-13T03:37:29;1.45;;;1.13;;
74677;SDS011;67324;56.326;43.982;2023-07-13T03:39:56;2.03;;;1.30;;
74677;SDS011;67324;56.326;43.982;2023-07-13T03:42:22;1.65;;;1.20;;
74677;SDS011;67324;56.326;43.982;2023-07-13T03:45:07;1.85;;;1.30;;
74677;SDS011;67324;56.326;43.982;2023-07-13T03:47:33;1.55;;;1.20;;
74677;SDS011;67324;56.326;43.982;2023-07-13T03:50:03;1.40;;;1.13;;
74677;SDS011;67324;56.326;43.982;2023-07-13T03:52:29;1.88;;;1.35;;
74677;SDS011;67324;56.326;43.982;2023-07-13T03:54:55;1.58;;;1.33;;
74677;SDS011;67324;56.326;43.982;2023-07-13T03:57:21;1.70;;;1.30;;
74677;SDS011;67324;56.326;43.982;2023-07-13T03:59:47;1.80;;;1.20;;
74677;SDS011;67324;56.326;43.982;2023-07-13T04:02:13;1.50;;;1.30;;
74677;SDS011;67324;56.326;43.982;2023-07-13T04:04:39;1.70;;;1.38;;
74677;SDS011;67324;56.326;43.982;2023-07-13T04:07:26;1.75;;;1.48;;
74677;SDS011;67324;56.326;43.982;2023-07-13T04:09:52;1.90;;;1.35;;
74677;SDS011;67324;56.326;43.982;2023-07-13T04:12:18;2.15;;;1.35;;
74677;SDS011;67324;56.326;43.982;2023-07-13T04:14:44;1.90;;;1.25;;
74677;SDS011;67324;56.326;43.982;2023-07-13T04:17:10;1.63;;;1.30;;
74677;SDS011;67324;56.326;43.982;2023-07-13T04:19:54;1.60;;;1.13;;
74677;SDS011;67324;56.326;43.982;2023-07-13T04:22:20;1.77;;;1.30;;
74677;SDS011;67324;56.326;43.982;2023-07-13T04:24:46;1.42;;;1.20;;
74677;SDS011;67324;56.326;43.982;2023-07-13T04:27:12;1.90;;;1.23;;
74677;SDS011;67324;56.326;43.982;2023-07-13T04:29:37;1.67;;;1.25;;
74677;SDS011;67324;56.326;43.982;2023-07-13T04:32:03;1.77;;;1.40;;
74677;SDS011;67324;56.326;43.982;2023-07-13T04:34:30;1.77;;;1.30;;
74677;SDS011;67324;56.326;43.982;2023-07-13T04:36:55;1.50;;;1.30;;
74677;SDS011;67324;56.326;43.982;2023-07-13T04:39:21;1.65;;;1.30;;
74677;SDS011;67324;56.326;43.982;2023-07-13T04:41:47;1.90;;;1.30;;
74677;SDS011;67324;56.326;43.982;2023-07-13T04:44:13;1.63;;;1.30;;
74677;SDS011;67324;56.326;43.982;2023-07-13T04:46:39;1.27;;;1.17;;
74677;SDS011;67324;56.326;43.982;2023-07-13T04:49:05;1.83;;;1.30;;
74677;SDS011;67324;56.326;43.982;2023-07-13T04:51:31;1.67;;;1.20;;
74677;SDS011;67324;56.326;43.982;2023-07-13T04:53:57;1.88;;;1.45;;
74677;SDS011;67324;56.326;43.982;2023-07-13T04:56:22;1.90;;;1.50;;
74677;SDS011;67324;56.326;43.982;2023-07-13T04:58:48;1.50;;;1.40;;
74677;SDS011;67324;56.326;43.982;2023-07-13T05:01:14;1.52;;;1.35;;
74677;SDS011;67324;56.326;43.982;2023-07-13T05:03:40;2.88;;;1.52;;
74677;SDS011;67324;56.326;43.982;2023-07-13T05:06:07;2.00;;;1.60;;
74677;SDS011;67324;56.326;43.982;2023-07-13T05:08:35;2.65;;;1.77;;
74677;SDS011;67324;56.326;43.982;2023-07-13T05:11:01;2.17;;;1.73;;
74677;SDS011;67324;56.326;43.982;2023-07-13T05:13:29;2.95;;;1.80;;
74677;SDS011;67324;56.326;43.982;2023-07-13T05:15:58;2.15;;;1.67;;
74677;SDS011;67324;56.326;43.982;2023-07-13T05:18:27;3.08;;;1.73;;
74677;SDS011;67324;56.326;43.982;2023-07-13T05:21:04;2.28;;;1.92;;
74677;SDS011;67324;56.326;43.982;2023-07-13T05:23:32;2.67;;;1.92;;
74677;SDS011;67324;56.326;43.982;2023-07-13T05:25:59;3.15;;;1.98;;
74677;SDS011;67324;56.326;43.982;2023-07-13T05:28:26;2.83;;;1.80;;
74677;SDS011;67324;56.326;43.982;2023-07-13T05:30:53;3.63;;;1.95;;
74677;SDS011;67324;56.326;43.982;2023-07-13T05:33:19;2.47;;;1.60;;
74677;SDS011;67324;56.326;43.982;2023-07-13T05:35:46;2.40;;;1.67;;
74677;SDS011;67324;56.326;43.982;2023-07-13T05:38:12;2.80;;;1.95;;
74677;SDS011;67324;56.326;43.982;2023-07-13T05:40:37;2.25;;;1.77;;
74677;SDS011;67324;56.326;43.982;2023-07-13T05:43:03;2.95;;;1.70;;
74677;SDS011;67324;56.326;43.982;2023-07-13T05:45:30;1.95;;;1.52;;
74677;SDS011;67324;56.326;43.982;2023-07-13T05:47:56;2.40;;;1.50;;
74677;SDS011;67324;56.326;43.982;2023-07-13T05:50:21;2.40;;;1.75;;
74677;SDS011;67324;56.326;43.982;2023-07-13T05:55:32;2.72;;;1.90;;
74677;SDS011;67324;56.326;43.982;2023-07-13T05:57:59;3.53;;;1.95;;
74677;SDS011;67324;56.326;43.982;2023-07-13T06:00:26;2.75;;;1.65;;
74677;SDS011;67324;56.326;43.982;2023-07-13T06:02:52;2.67;;;1.67;;
74677;SDS011;67324;56.326;43.982;2023-07-13T06:05:18;3.17;;;1.80;;
74677;SDS011;67324;56.326;43.982;2023-07-13T06:07:44;2.30;;;1.63;;
74677;SDS011;67324;56.326;43.982;2023-07-13T06:10:10;3.17;;;1.92;;
74677;SDS011;67324;56.326;43.982;2023-07-13T06:12:35;2.20;;;1.83;;
74677;SDS011;67324;56.326;43.982;2023-07-13T06:15:01;3.00;;;1.80;;
74677;SDS011;67324;56.326;43.982;2023-07-13T06:17:29;1.85;;;1.60;;
74677;SDS011;67324;56.326;43.982;2023-07-13T06:19:56;2.47;;;1.80;;
74677;SDS011;67324;56.326;43.982;2023-07-13T06:22:21;1.95;;;1.70;;
74677;SDS011;67324;56.326;43.982;2023-07-13T06:24:47;2.47;;;1.85;;
74677;SDS011;67324;56.326;43.982;2023-07-13T06:27:13;2.50;;;1.63;;
74677;SDS011;67324;56.326;43.982;2023-07-13T06:29:39;2.05;;;1.80;;
74677;SDS011;67324;56.326;43.982;2023-07-13T06:32:05;1.90;;;1.65;;
74677;SDS011;67324;56.326;43.982;2023-07-13T06:34:32;2.17;;;1.52;;
74677;SDS011;67324;56.326;43.982;2023-07-13T06:36:57;2.35;;;1.60;;
74677;SDS011;67324;56.326;43.982;2023-07-13T06:39:23;2.08;;;1.67;;
74677;SDS011;67324;56.326;43.982;2023-07-13T06:41:49;2.20;;;1.90;;
74677;SDS011;67324;56.326;43.982;2023-07-13T06:44:17;2.20;;;1.70;;
74677;SDS011;67324;56.326;43.982;2023-07-13T06:46:42;2.08;;;1.50;;
74677;SDS011;67324;56.326;43.982;2023-07-13T06:49:08;1.92;;;1.50;;
74677;SDS011;67324;56.326;43.982;2023-07-13T06:51:35;2.22;;;1.77;;
74677;SDS011;67324;56.326;43.982;2023-07-13T06:54:01;2.97;;;1.75;;
74677;SDS011;67324;56.326;43.982;2023-07-13T06:56:27;2.47;;;1.90;;
74677;SDS011;67324;56.326;43.982;2023-07-13T06:58:53;2.72;;;1.90;;
74677;SDS011;67324;56.326;43.982;2023-07-13T07:01:19;2.28;;;1.80;;
74677;SDS011;67324;56.326;43.982;2023-07-13T07:03:44;2.35;;;1.85;;
74677;SDS011;67324;56.326;43.982;2023-07-13T07:06:15;1.85;;;1.60;;
74677;SDS011;67324;56.326;43.982;2023-07-13T07:08:44;2.20;;;1.50;;
74677;SDS011;67324;56.326;43.982;2023-07-13T07:11:15;2.45;;;1.60;;
74677;SDS011;67324;56.326;43.982;2023-07-13T07:14:02;2.13;;;1.60;;
74677;SDS011;67324;56.326;43.982;2023-07-13T07:16:28;2.13;;;1.88;;
74677;SDS011;67324;56.326;43.982;2023-07-13T07:18:54;2.65;;;1.75;;
74677;SDS011;67324;56.326;43.982;2023-07-13T07:21:20;1.80;;;1.50;;
74677;SDS011;67324;56.326;43.982;2023-07-13T07:23:48;2.80;;;1.85;;
74677;SDS011;67324;56.326;43.982;2023-07-13T07:26:14;2.22;;;1.70;;
74677;SDS011;67324;56.326;43.982;2023-07-13T07:28:40;2.05;;;1.33;;
74677;SDS011;67324;56.326;43.982;2023-07-13T07:31:06;2.28;;;1.70;;
74677;SDS011;67324;56.326;43.982;2023-07-13T07:33:32;3.15;;;1.75;;
74677;SDS011;67324;56.326;43.982;2023-07-13T07:35:59;1.90;;;1.70;;
74677;SDS011;67324;56.326;43.982;2023-07-13T07:38:26;1.67;;;1.58;;
74677;SDS011;67324;56.326;43.982;2023-07-13T07:40:52;2.40;;;1.67;;
74677;SDS011;67324;56.326;43.982;2023-07-13T07:43:18;2.47;;;1.70;;
74677;SDS011;67324;56.326;43.982;2023-07-13T07:45:44;2.38;;;1.70;;
74677;SDS011;67324;56.326;43.982;2023-07-13T07:48:10;2.03;;;1.73;;
74677;SDS011;67324;56.326;43.982;2023-07-13T07:50:37;3.13;;;1.70;;
74677;SDS011;67324;56.326;43.982;2023-07-13T07:53:05;2.85;;;1.70;;
74677;SDS011;67324;56.326;43.982;2023-07-13T07:55:36;3.47;;;1.60;;
74677;SDS011;67324;56.326;43.982;2023-07-13T07:58:01;2.20;;;1.48;;
74677;SDS011;67324;56.326;43.982;2023-07-13T08:00:27;2.10;;;1.60;;
74677;SDS011;67324;56.326;43.982;2023-07-13T08:02:56;1.80;;;1.50;;
74677;SDS011;67324;56.326;43.982;2023-07-13T08:05:22;2.53;;;1.70;;
74677;SDS011;67324;56.326;43.982;2023-07-13T08:07:48;2.55;;;1.60;;
74677;SDS011;67324;56.326;43.982;2023-07-13T08:10:14;2.70;;;1.58;;
74677;SDS011;67324;56.326;43.982;2023-07-13T08:12:40;2.03;;;1.52;;
74677;SDS011;67324;56.326;43.982;2023-07-13T08:15:07;1.90;;;1.40;;
74677;SDS011;67324;56.326;43.982;2023-07-13T08:17:36;2.08;;;1.60;;
74677;SDS011;67324;56.326;43.982;2023-07-13T08:20:02;2.63;;;1.70;;
74677;SDS011;67324;56.326;43.982;2023-07-13T08:22:31;2.65;;;1.60;;
74677;SDS011;67324;56.326;43.982;2023-07-13T08:24:57;2.15;;;1.70;;
74677;SDS011;67324;56.326;43.982;2023-07-13T08:27:23;1.90;;;1.70;;
74677;SDS011;67324;56.326;43.982;2023-07-13T08:29:51;1.80;;;1.50;;
74677;SDS011;67324;56.326;43.982;2023-07-13T08:32:18;2.00;;;1.60;;
74677;SDS011;67324;56.326;43.982;2023-07-13T08:34:44;2.53;;;1.60;;
74677;SDS011;67324;56.326;43.982;2023-07-13T08:37:11;2.88;;;1.80;;
74677;SDS011;67324;56.326;43.982;2023-07-13T08:39:37;2.78;;;1.77;;
74677;SDS011;67324;56.326;43.982;2023-07-13T08:42:11;1.70;;;1.50;;
74677;SDS011;67324;56.326;43.982;2023-07-13T08:47:09;2.65;;;1.67;;
74677;SDS011;67324;56.326;43.982;2023-07-13T08:49:39;2.83;;;1.60;;
74677;SDS011;67324;56.326;43.982;2023-07-13T08:52:08;1.90;;;1.50;;
74677;SDS011;67324;56.326;43.982;2023-07-13T08:54:50;2.00;;;1.63;;
74677;SDS011;67324;56.326;43.982;2023-07-13T08:57:21;2.30;;;1.80;;
74677;SDS011;67324;56.326;43.982;2023-07-13T08:59:55;1.90;;;1.35;;
74677;SDS011;67324;56.326;43.982;2023-07-13T09:05:29;2.17;;;1.55;;
74677;SDS011;67324;56.326;43.982;2023-07-13T09:10:35;1.58;;;1.38;;
74677;SDS011;67324;56.326;43.982;2023-07-13T09:13:18;1.85;;;1.50;;
74677;SDS011;67324;56.326;43.982;2023-07-13T09:15:53;2.05;;;1.70;;
74677;SDS011;67324;56.326;43.982;2023-07-13T09:18:33;2.30;;;1.40;;
74677;SDS011;67324;56.326;43.982;2023-07-13T09:21:03;2.05;;;1.67;;
74677;SDS011;67324;56.326;43.982;2023-07-13T09:23:36;1.50;;;1.33;;
74677;SDS011;67324;56.326;43.982;2023-07-13T09:26:07;1.60;;;1.50;;
74677;SDS011;67324;56.326;43.982;2023-07-13T09:28:41;2.42;;;1.58;;
74677;SDS011;67324;56.326;43.982;2023-07-13T09:31:31;1.80;;;1.50;;
74677;SDS011;67324;56.326;43.982;2023-07-13T09:34:00;1.98;;;1.30;;
74677;SDS011;67324;56.326;43.982;2023-07-13T09:36:30;2.15;;;1.65;;
74677;SDS011;67324;56.326;43.982;2023-07-13T09:39:04;2.17;;;1.60;;
74677;SDS011;67324;56.326;43.982;2023-07-13T09:41:57;1.80;;;1.58;;
74677;SDS011;67324;56.326;43.982;2023-07-13T09:45:05;2.35;;;1.60;;
74677;SDS011;67324;56.326;43.982;2023-07-13T09:47:31;1.95;;;1.60;;
74677;SDS011;67324;56.326;43.982;2023-07-13T09:50:03;2.00;;;1.63;;
74677;SDS011;67324;56.326;43.982;2023-07-13T09:52:42;2.60;;;1.50;;
74677;SDS011;67324;56.326;43.982;2023-07-13T09:57:54;2.38;;;1.30;;
74677;SDS011;67324;56.326;43.982;2023-07-13T10:00:21;2.78;;;1.60;;
74677;SDS011;67324;56.326;43.982;2023-07-13T10:02:57;2.10;;;1.58;;
74677;SDS011;67324;56.326;43.982;2023-07-13T10:05:26;1.83;;;1.30;;
74677;SDS011;67324;56.326;43.982;2023-07-13T10:07:53;2.53;;;1.60;;
74677;SDS011;67324;56.326;43.982;2023-07-13T10:10:22;1.77;;;1.50;;
74677;SDS011;67324;56.326;43.982;2023-07-13T10:12:48;1.98;;;1.60;;
74677;SDS011;67324;56.326;43.982;2023-07-13T10:15:21;2.58;;;1.70;;
74677;SDS011;67324;56.326;43.982;2023-07-13T10:17:50;1.47;;;1.33;;
74677;SDS011;67324;56.326;43.982;2023-07-13T10:20:17;2.15;;;1.58;;
74677;SDS011;67324;56.326;43.982;2023-07-13T10:25:39;2.00;;;1.73;;
74677;SDS011;67324;56.326;43.982;2023-07-13T10:30:51;4.40;;;1.63;;
74677;SDS011;67324;56.326;43.982;2023-07-13T10:33:19;2.20;;;1.42;;
74677;SDS011;67324;56.326;43.982;2023-07-13T10:35:46;1.70;;;1.60;;
74677;SDS011;67324;56.326;43.982;2023-07-13T10:38:18;2.50;;;1.52;;
74677;SDS011;67324;56.326;43.982;2023-07-13T10:40:52;2.17;;;1.60;;
74677;SDS011;67324;56.326;43.982;2023-07-13T10:43:25;1.83;;;1.55;;
74677;SDS011;67324;56.326;43.982;2023-07-13T10:46:05;1.70;;;1.48;;
74677;SDS011;67324;56.326;43.982;2023-07-13T10:48:35;1.88;;;1.50;;
74677;SDS011;67324;56.326;43.982;2023-07-13T10:51:03;1.95;;;1.35;;
74677;SDS011;67324;56.326;43.982;2023-07-13T10:53:35;2.35;;;1.40;;
74677;SDS011;67324;56.326;43.982;2023-07-13T11:04:25;1.73;;;1.30;;
74677;SDS011;67324;56.326;43.982;2023-07-13T11:06:58;2.13;;;1.75;;
74677;SDS011;67324;56.326;43.982;2023-07-13T11:09:40;2.38;;;1.40;;
74677;SDS011;67324;56.326;43.982;2023-07-13T11:12:07;1.80;;;1.50;;
74677;SDS011;67324;56.326;43.982;2023-07-13T11:14:36;1.98;;;1.45;;
74677;SDS011;67324;56.326;43.982;2023-07-13T11:22:19;3.10;;;1.55;;
74677;SDS011;67324;56.326;43.982;2023-07-13T11:24:49;1.65;;;1.50;;
74677;SDS011;67324;56.326;43.982;2023-07-13T11:29:53;1.95;;;1.30;;
74677;SDS011;67324;56.326;43.982;2023-07-13T11:38:12;1.60;;;1.50;;
74677;SDS011;67324;56.326;43.982;2023-07-13T11:40:42;1.50;;;1.40;;
74677;SDS011;67324;56.326;43.982;2023-07-13T11:43:12;1.70;;;1.30;;
74677;SDS011;67324;56.326;43.982;2023-07-13T11:45:39;2.22;;;1.60;;
74677;SDS011;67324;56.326;43.982;2023-07-13T11:48:16;2.72;;;1.60;;
74677;SDS011;67324;56.326;43.982;2023-07-13T11:50:51;1.90;;;1.40;;
74677;SDS011;67324;56.326;43.982;2023-07-13T11:53:39;2.45;;;1.67;;
74677;SDS011;67324;56.326;43.982;2023-07-13T11:56:12;1.85;;;1.48;;
74677;SDS011;67324;56.326;43.982;2023-07-13T11:58:38;3.03;;;1.50;;
74677;SDS011;67324;56.326;43.982;2023-07-13T12:01:04;2.20;;;1.60;;
74677;SDS011;67324;56.326;43.982;2023-07-13T12:03:31;2.25;;;1.50;;
74677;SDS011;67324;56.326;43.982;2023-07-13T12:06:04;2.03;;;1.58;;
74677;SDS011;67324;56.326;43.982;2023-07-13T12:08:37;1.92;;;1.40;;
74677;SDS011;67324;56.326;43.982;2023-07-13T12:11:09;1.95;;;1.50;;
74677;SDS011;67324;56.326;43.982;2023-07-13T12:14:00;4.38;;;2.20;;
74677;SDS011;67324;56.326;43.982;2023-07-13T12:16:29;2.90;;;1.90;;
74677;SDS011;67324;56.326;43.982;2023-07-13T12:19:01;4.22;;;2.05;;
74677;SDS011;67324;56.326;43.982;2023-07-13T12:21:32;4.57;;;2.45;;
74677;SDS011;67324;56.326;43.982;2023-07-13T12:24:00;5.20;;;2.35;;
74677;SDS011;67324;56.326;43.982;2023-07-13T12:26:28;3.67;;;2.35;;
74677;SDS011;67324;56.326;43.982;2023-07-13T12:28:58;3.95;;;2.22;;
74677;SDS011;67324;56.326;43.982;2023-07-13T12:34:02;3.13;;;2.20;;
74677;SDS011;67324;56.326;43.982;2023-07-13T12:36:35;3.60;;;2.40;;
74677;SDS011;67324;56.326;43.982;2023-07-13T12:39:04;4.65;;;2.50;;
74677;SDS011;67324;56.326;43.982;2023-07-13T12:41:38;4.03;;;2.45;;
74677;SDS011;67324;56.326;43.982;2023-07-13T12:44:09;4.57;;;2.72;;
74677;SDS011;67324;56.326;43.982;2023-07-13T12:46:37;3.17;;;2.33;;
74677;SDS011;67324;56.326;43.982;2023-07-13T12:49:05;3.28;;;2.30;;
74677;SDS011;67324;56.326;43.982;2023-07-13T12:51:32;3.53;;;2.40;;
74677;SDS011;67324;56.326;43.982;2023-07-13T12:54:12;3.50;;;2.45;;
74677;SDS011;67324;56.326;43.982;2023-07-13T12:56:42;4.28;;;2.70;;
74677;SDS011;67324;56.326;43.982;2023-07-13T12:59:14;4.38;;;2.55;;
74677;SDS011;67324;56.326;43.982;2023-07-13T13:01:46;3.95;;;2.40;;
74677;SDS011;67324;56.326;43.982;2023-07-13T13:04:14;4.53;;;2.53;;
74677;SDS011;67324;56.326;43.982;2023-07-13T13:06:41;4.55;;;2.67;;
74677;SDS011;67324;56.326;43.982;2023-07-13T13:09:12;4.55;;;2.80;;
74677;SDS011;67324;56.326;43.982;2023-07-13T13:11:39;4.88;;;2.53;;
74677;SDS011;67324;56.326;43.982;2023-07-13T13:14:06;3.35;;;2.40;;
74677;SDS011;67324;56.326;43.982;2023-07-13T13:16:43;3.65;;;2.58;;
74677;SDS011;67324;56.326;43.982;2023-07-13T13:19:13;4.03;;;2.47;;
74677;SDS011;67324;56.326;43.982;2023-07-13T13:21:42;4.45;;;2.70;;
74677;SDS011;67324;56.326;43.982;2023-07-13T13:24:16;4.03;;;2.58;;
74677;SDS011;67324;56.326;43.982;2023-07-13T13:26:45;4.80;;;2.83;;
74677;SDS011;67324;56.326;43.982;2023-07-13T13:29:13;6.70;;;3.20;;
74677;SDS011;67324;56.326;43.982;2023-07-13T13:31:41;6.25;;;3.03;;
74677;SDS011;67324;56.326;43.982;2023-07-13T13:34:09;4.68;;;3.10;;
74677;SDS011;67324;56.326;43.982;2023-07-13T13:36:37;5.65;;;3.15;;
74677;SDS011;67324;56.326;43.982;2023-07-13T13:39:05;4.72;;;2.70;;
74677;SDS011;67324;56.326;43.982;2023-07-13T13:41:47;4.95;;;3.15;;
74677;SDS011;67324;56.326;43.982;2023-07-13T13:44:15;6.40;;;3.10;;
74677;SDS011;67324;56.326;43.982;2023-07-13T13:46:42;5.82;;;3.30;;
74677;SDS011;67324;56.326;43.982;2023-07-13T13:49:16;7.22;;;3.30;;
74677;SDS011;67324;56.326;43.982;2023-07-13T13:51:47;8.52;;;3.50;;
74677;SDS011;67324;56.326;43.982;2023-07-13T13:54:14;5.70;;;3.53;;
74677;SDS011;67324;56.326;43.982;2023-07-13T13:56:42;4.60;;;3.40;;
74677;SDS011;67324;56.326;43.982;2023-07-13T13:59:08;6.90;;;3.58;;
74677;SDS011;67324;56.326;43.982;2023-07-13T14:01:35;5.85;;;3.50;;
74677;SDS011;67324;56.326;43.982;2023-07-13T14:04:01;5.60;;;3.38;;
74677;SDS011;67324;56.326;43.982;2023-07-13T14:06:28;6.05;;;3.72;;
74677;SDS011;67324;56.326;43.982;2023-07-13T14:08:53;6.93;;;3.65;;
74677;SDS011;67324;56.326;43.982;2023-07-13T14:11:39;5.65;;;3.50;;
74677;SDS011;67324;56.326;43.982;2023-07-13T14:14:08;6.05;;;3.40;;
74677;SDS011;67324;56.326;43.982;2023-07-13T14:16:41;6.57;;;3.72;;
74677;SDS011;67324;56.326;43.982;2023-07-13T14:19:12;5.43;;;3.30;;
74677;SDS011;67324;56.326;43.982;2023-07-13T14:21:39;5.65;;;3.75;;
74677;SDS011;67324;56.326;43.982;2023-07-13T14:24:05;7.85;;;3.95;;
74677;SDS011;67324;56.326;43.982;2023-07-13T14:26:32;7.28;;;3.90;;
74677;SDS011;67324;56.326;43.982;2023-07-13T14:29:04;6.65;;;3.60;;
74677;SDS011;67324;56.326;43.982;2023-07-13T14:34:02;6.63;;;4.00;;
74677;SDS011;67324;56.326;43.982;2023-07-13T14:36:29;5.20;;;3.30;;
74677;SDS011;67324;56.326;43.982;2023-07-13T14:39:01;6.28;;;3.47;;
74677;SDS011;67324;56.326;43.982;2023-07-13T14:41:35;6.50;;;3.55;;
74677;SDS011;67324;56.326;43.982;2023-07-13T14:44:01;7.97;;;3.83;;
74677;SDS011;67324;56.326;43.982;2023-07-13T14:46:30;6.18;;;3.55;;
74677;SDS011;67324;56.326;43.982;2023-07-13T14:49:07;6.90;;;3.85;;
74677;SDS011;67324;56.326;43.982;2023-07-13T14:51:58;6.60;;;4.00;;
74677;SDS011;67324;56.326;43.982;2023-07-13T14:54:36;7.13;;;3.70;;
74677;SDS011;67324;56.326;43.982;2023-07-13T14:57:09;5.45;;;3.25;;
74677;SDS011;67324;56.326;43.982;2023-07-13T14:59:37;6.22;;;3.75;;
74677;SDS011;67324;56.326;43.982;2023-07-13T15:02:08;6.40;;;4.28;;
74677;SDS011;67324;56.326;43.982;2023-07-13T15:04:56;6.60;;;4.45;;
74677;SDS011;67324;56.326;43.982;2023-07-13T15:07:22;7.70;;;4.03;;
74677;SDS011;67324;56.326;43.982;2023-07-13T15:12:44;6.50;;;4.00;;
74677;SDS011;67324;56.326;43.982;2023-07-13T15:15:11;6.97;;;4.10;;
74677;SDS011;67324;56.326;43.982;2023-07-13T15:17:42;6.32;;;4.22;;
74677;SDS011;67324;56.326;43.982;2023-07-13T15:22:53;7.82;;;4.47;;
74677;SDS011;67324;56.326;43.982;2023-07-13T15:25:20;6.18;;;4.18;;
74677;SDS011;67324;56.326;43.982;2023-07-13T15:27:47;9.18;;;4.80;;
74677;SDS011;67324;56.326;43.982;2023-07-13T15:30:14;8.65;;;5.10;;
74677;SDS011;67324;56.326;43.982;2023-07-13T15:32:43;8.23;;;4.50;;
74677;SDS011;67324;56.326;43.982;2023-07-13T15:35:17;8.68;;;4.95;;
74677;SDS011;67324;56.326;43.982;2023-07-13T15:37:45;8.32;;;5.40;;
74677;SDS011;67324;56.326;43.982;2023-07-13T15:40:30;8.80;;;4.80;;
74677;SDS011;67324;56.326;43.982;2023-07-13T15:42:56;8.07;;;4.60;;